Time;durP1;ratioP1;P1;durP2;ratioP2;P2;SDS_P1;SDS_P2;PMS_P1;PMS_P2;Temp;Humidity;BMP_temperature;BMP_pressure;BME280_temperature;BME280_humidity;BME280_pressure;Samples;Min_cycle;Max_cycle;Signal;HPM_P1;HPM_P2
2023/02/06 00:00:22;;;;;;;30.23;4.88;;;1.30;99.90;;;;;;5005707;28;20041;-75
2023/02/06 00:02:51;;;;;;;42.80;6.03;;;1.30;99.90;;;;;;4987190;28;20031;-77
2023/02/06 00:05:17;;;;;;;32.42;5.93;;;1.30;99.90;;;;;;4984883;28;20026;-75
2023/02/06 00:07:42;;;;;;;40.58;5.55;;;1.20;99.90;;;;;;4993242;28;20042;-76
2023/02/06 00:10:08;;;;;;;36.60;5.28;;;1.20;99.90;;;;;;5005532;28;20038;-76
2023/02/06 00:12:34;;;;;;;41.75;5.60;;;1.20;99.90;;;;;;5005912;28;20078;-74
2023/02/06 00:15:00;;;;;;;48.85;5.25;;;1.20;99.90;;;;;;5004197;28;20167;-76
2023/02/06 00:17:25;;;;;;;36.30;4.72;;;1.20;99.90;;;;;;5005399;28;20034;-75
2023/02/06 00:19:51;;;;;;;34.88;5.63;;;1.20;99.90;;;;;;5004219;28;20038;-75
2023/02/06 00:22:17;;;;;;;55.38;5.65;;;1.20;99.90;;;;;;5005702;28;20387;-77
2023/02/06 00:24:42;;;;;;;35.25;4.72;;;1.20;99.90;;;;;;5004218;28;20101;-75
2023/02/06 00:27:08;;;;;;;35.88;5.30;;;1.20;99.90;;;;;;5004005;28;20054;-74
2023/02/06 00:29:34;;;;;;;61.53;6.22;;;1.20;99.90;;;;;;5003861;28;20042;-76
2023/02/06 00:31:59;;;;;;;37.55;5.45;;;1.20;99.90;;;;;;5005249;28;20045;-74
2023/02/06 00:34:25;;;;;;;29.75;4.95;;;1.20;99.90;;;;;;5004940;28;20026;-76
2023/02/06 00:36:50;;;;;;;45.40;5.80;;;1.20;99.90;;;;;;5005255;28;20038;-76
2023/02/06 00:39:17;;;;;;;40.00;5.38;;;1.20;99.90;;;;;;5003122;28;20144;-75
2023/02/06 00:41:43;;;;;;;33.00;5.53;;;1.20;99.90;;;;;;5003953;28;20034;-77
2023/02/06 00:44:08;;;;;;;45.33;4.88;;;1.20;99.90;;;;;;5006262;28;20030;-74
2023/02/06 00:46:34;;;;;;;43.00;5.65;;;1.20;99.90;;;;;;5004898;28;20585;-75
2023/02/06 00:48:59;;;;;;;37.50;5.28;;;1.20;99.90;;;;;;5004958;28;20046;-75
2023/02/06 00:51:25;;;;;;;35.75;6.40;;;1.20;99.90;;;;;;5003574;28;20026;-74
2023/02/06 00:53:51;;;;;;;40.47;5.18;;;1.20;99.90;;;;;;5003791;28;20037;-76
2023/02/06 00:56:17;;;;;;;36.25;5.63;;;1.20;99.90;;;;;;5004810;28;20031;-77
2023/02/06 00:58:43;;;;;;;37.28;5.10;;;1.20;99.90;;;;;;5005183;28;20038;-75
2023/02/06 01:01:09;;;;;;;40.75;5.22;;;1.20;99.90;;;;;;5002991;28;20501;-76
2023/02/06 01:03:34;;;;;;;44.28;5.80;;;1.20;99.90;;;;;;5003225;28;20030;-76
2023/02/06 01:06:00;;;;;;;46.85;6.25;;;1.20;99.90;;;;;;5003300;28;20088;-75
2023/02/06 01:08:25;;;;;;;36.38;5.60;;;1.20;99.90;;;;;;5004160;28;20038;-74
2023/02/06 01:10:51;;;;;;;40.80;5.40;;;1.20;99.90;;;;;;5004702;28;20035;-75
2023/02/06 01:13:17;;;;;;;50.60;5.88;;;1.10;99.90;;;;;;5003615;28;20049;-76
2023/02/06 01:15:43;;;;;;;35.40;5.40;;;1.20;99.90;;;;;;4996890;28;20022;-74
2023/02/06 01:18:09;;;;;;;53.40;6.13;;;1.10;99.90;;;;;;4999864;28;20042;-76
2023/02/06 01:20:35;;;;;;;54.25;6.22;;;1.20;99.90;;;;;;4999726;28;20031;-75
2023/02/06 01:23:00;;;;;;;40.35;4.80;;;1.20;99.90;;;;;;4993239;28;20045;-77
2023/02/06 01:25:26;;;;;;;48.63;5.85;;;1.10;99.90;;;;;;5003047;28;20034;-75
2023/02/06 01:27:52;;;;;;;46.38;5.93;;;1.10;99.90;;;;;;5002669;28;20030;-75
2023/02/06 01:30:18;;;;;;;64.93;6.50;;;1.20;99.90;;;;;;5003104;28;20026;-76
2023/02/06 01:32:43;;;;;;;52.88;6.80;;;1.20;99.90;;;;;;5004360;28;20092;-75
2023/02/06 01:35:10;;;;;;;45.50;5.68;;;1.20;99.90;;;;;;5004348;28;20064;-75
2023/02/06 01:37:36;;;;;;;50.78;5.57;;;1.20;99.90;;;;;;5004063;28;20046;-76
2023/02/06 01:40:04;;;;;;;36.80;5.53;;;1.20;99.90;;;;;;4999447;28;20098;-74
2023/02/06 01:42:33;;;;;;;43.00;5.03;;;1.20;99.90;;;;;;4999525;28;20345;-76
2023/02/06 01:45:39;;;;;;;50.08;5.53;;;1.20;99.90;;;;;;4983114;28;20200;-76
2023/02/06 01:48:11;;;;;;;45.95;6.07;;;1.20;99.90;;;;;;4982249;28;20073;-75
2023/02/06 01:50:39;;;;;;;51.40;6.25;;;1.20;99.90;;;;;;4996484;28;20026;-76
2023/02/06 01:53:05;;;;;;;49.00;5.10;;;1.20;99.90;;;;;;4999478;28;20027;-75
2023/02/06 01:55:33;;;;;;;47.65;5.88;;;1.20;99.90;;;;;;4999303;28;20556;-74
2023/02/06 01:58:00;;;;;;;50.38;5.78;;;1.20;99.90;;;;;;4986784;28;20129;-76
2023/02/06 02:00:25;;;;;;;47.78;5.68;;;1.20;99.90;;;;;;5003614;28;20030;-76
2023/02/06 02:02:51;;;;;;;54.42;6.25;;;1.30;99.90;;;;;;5003847;28;20030;-74
2023/02/06 02:05:18;;;;;;;56.38;5.68;;;1.20;99.90;;;;;;5003956;28;20392;-76
2023/02/06 02:07:53;;;;;;;53.17;5.85;;;1.20;99.90;;;;;;5002658;28;20045;-75
2023/02/06 02:10:19;;;;;;;51.10;6.57;;;1.20;99.90;;;;;;5003833;28;20026;-76
2023/02/06 02:12:45;;;;;;;57.35;5.97;;;1.20;99.90;;;;;;5004173;28;20088;-76
2023/02/06 02:15:11;;;;;;;47.85;6.18;;;1.20;99.90;;;;;;5003857;28;20064;-76
2023/02/06 02:18:05;;;;;;;50.90;6.13;;;1.20;99.90;;;;;;5002452;28;20143;-75
2023/02/06 02:21:09;;;;;;;49.72;5.88;;;1.20;99.90;;;;;;5001825;28;20054;-76
2023/02/06 02:23:52;;;;;;;50.35;6.07;;;1.20;99.90;;;;;;4986483;28;20038;-75
2023/02/06 02:27:12;;;;;;;45.67;5.80;;;1.20;99.90;;;;;;4986853;28;20031;-75
2023/02/06 02:29:56;;;;;;;51.22;6.43;;;1.20;99.90;;;;;;4996826;28;20054;-75
2023/02/06 02:32:35;;;;;;;59.70;6.53;;;1.20;99.90;;;;;;5002141;28;20106;-76
2023/02/06 02:35:21;;;;;;;49.05;6.63;;;1.20;99.90;;;;;;5007305;28;20100;-75
2023/02/06 02:38:05;;;;;;;67.28;6.55;;;1.20;99.90;;;;;;5006086;28;20459;-77
2023/02/06 02:40:44;;;;;;;49.97;6.97;;;1.20;99.90;;;;;;5007186;28;20081;-76
2023/02/06 02:43:33;;;;;;;49.65;6.07;;;1.20;99.90;;;;;;5005568;28;20569;-75
2023/02/06 02:46:26;;;;;;;44.50;6.25;;;1.20;99.90;;;;;;4992382;28;20046;-76
2023/02/06 02:48:55;;;;;;;60.47;5.95;;;1.20;99.90;;;;;;4984383;28;20043;-77
2023/02/06 02:51:21;;;;;;;44.45;4.63;;;1.20;99.90;;;;;;5007281;28;20041;-76
2023/02/06 02:53:48;;;;;;;45.58;6.13;;;1.20;99.90;;;;;;5007269;28;20054;-76
2023/02/06 02:56:24;;;;;;;50.78;6.43;;;1.20;99.90;;;;;;5007263;28;20424;-76
2023/02/06 02:58:57;;;;;;;62.67;5.63;;;1.20;99.90;;;;;;4994617;28;20057;-76
2023/02/06 03:01:31;;;;;;;51.90;5.35;;;1.20;99.90;;;;;;5006831;28;20037;-75
2023/02/06 03:04:02;;;;;;;46.60;5.78;;;1.20;99.90;;;;;;5007062;28;20057;-75
2023/02/06 03:06:53;;;;;;;49.67;5.45;;;1.30;99.90;;;;;;5006705;28;20090;-76
2023/02/06 03:09:27;;;;;;;48.97;5.80;;;1.30;99.90;;;;;;5005801;28;20111;-76
2023/02/06 03:12:10;;;;;;;37.83;4.93;;;1.30;99.90;;;;;;5005398;28;20038;-76
2023/02/06 03:14:49;;;;;;;56.08;5.72;;;1.30;99.90;;;;;;5005441;28;20057;-76
2023/02/06 03:17:24;;;;;;;36.80;5.22;;;1.30;99.90;;;;;;5005680;28;20058;-76
2023/02/06 03:19:53;;;;;;;44.03;5.50;;;1.30;99.90;;;;;;5007095;28;20042;-76
2023/02/06 03:22:20;;;;;;;50.38;5.00;;;1.30;99.90;;;;;;5006774;28;20090;-76
2023/02/06 03:24:48;;;;;;;53.60;5.45;;;1.30;99.90;;;;;;5005122;28;20518;-77
2023/02/06 03:27:16;;;;;;;60.03;6.38;;;1.20;99.90;;;;;;5006837;28;20049;-75
2023/02/06 03:29:43;;;;;;;52.95;5.53;;;1.20;99.90;;;;;;5006387;28;20054;-77
2023/02/06 03:32:18;;;;;;;58.15;6.00;;;1.20;99.90;;;;;;5006521;28;20026;-75
2023/02/06 03:35:06;;;;;;;47.05;5.90;;;1.20;99.90;;;;;;5004887;28;20026;-75
2023/02/06 03:37:34;;;;;;;37.22;5.28;;;1.20;99.90;;;;;;5021289;28;20042;-76
2023/02/06 03:40:00;;;;;;;51.05;5.05;;;1.20;99.90;;;;;;4996826;28;20031;-76
2023/02/06 03:42:28;;;;;;;45.85;5.55;;;1.20;99.90;;;;;;5004903;28;20097;-75
2023/02/06 03:45:00;;;;;;;52.28;5.70;;;1.20;99.90;;;;;;5004454;28;20026;-75
2023/02/06 03:47:27;;;;;;;33.40;5.38;;;1.20;99.90;;;;;;5004841;28;20033;-76
2023/02/06 03:49:57;;;;;;;41.75;4.82;;;1.20;99.90;;;;;;5006061;28;20491;-76
2023/02/06 03:52:27;;;;;;;41.50;5.50;;;1.20;99.90;;;;;;5006135;28;20491;-76
2023/02/06 03:54:58;;;;;;;64.13;6.22;;;1.10;99.90;;;;;;5004704;28;20029;-77
2023/02/06 03:57:27;;;;;;;44.88;5.93;;;1.10;99.90;;;;;;5005512;28;20042;-78
2023/02/06 03:59:53;;;;;;;45.50;5.72;;;1.10;99.90;;;;;;5004436;28;20023;-77
2023/02/06 04:02:20;;;;;;;46.13;6.03;;;1.10;99.90;;;;;;5005568;28;20030;-76
2023/02/06 04:04:47;;;;;;;49.50;6.35;;;1.10;99.90;;;;;;5004840;28;20026;-77
2023/02/06 04:07:22;;;;;;;44.47;5.78;;;1.10;99.90;;;;;;5004851;28;20160;-76
2023/02/06 04:09:50;;;;;;;57.08;6.82;;;1.10;99.90;;;;;;5004473;28;20860;-76
2023/02/06 04:12:16;;;;;;;52.55;6.18;;;1.20;99.90;;;;;;5004308;28;20022;-77
2023/02/06 04:14:43;;;;;;;70.85;8.48;;;1.10;99.90;;;;;;5004142;28;20030;-76
2023/02/06 04:17:10;;;;;;;69.10;7.97;;;1.10;99.90;;;;;;5004982;28;20085;-76
2023/02/06 04:19:35;;;;;;;64.03;8.52;;;1.10;99.90;;;;;;5005332;28;20046;-79
2023/02/06 04:22:02;;;;;;;78.40;9.38;;;1.20;99.90;;;;;;5004211;28;20038;-76
2023/02/06 04:24:27;;;;;;;76.80;9.05;;;1.20;99.90;;;;;;5005274;28;20046;-76
2023/02/06 04:26:53;;;;;;;82.78;10.43;;;1.20;99.90;;;;;;5003737;28;20027;-76
2023/02/06 04:29:19;;;;;;;69.90;9.55;;;1.30;99.90;;;;;;5003362;28;20114;-77
2023/02/06 04:31:46;;;;;;;75.47;9.32;;;1.30;99.90;;;;;;5005348;28;20022;-76
2023/02/06 04:34:12;;;;;;;79.70;8.43;;;1.30;99.90;;;;;;5003881;28;20038;-75
2023/02/06 04:36:37;;;;;;;102.80;8.45;;;1.30;99.90;;;;;;5004192;28;20034;-75
2023/02/06 04:39:04;;;;;;;33.17;6.82;;;1.40;99.90;;;;;;5005143;28;20022;-74
2023/02/06 04:41:30;;;;;;;53.75;8.82;;;1.40;99.90;;;;;;5003558;28;20061;-75
2023/02/06 04:43:55;;;;;;;265.50;11.15;;;1.50;99.90;;;;;;5003693;28;20352;-76
2023/02/06 04:46:21;;;;;;;133.57;9.27;;;1.50;99.90;;;;;;5005118;28;20026;-76
2023/02/06 04:48:47;;;;;;;98.57;9.70;;;1.50;99.90;;;;;;5005255;28;20034;-76
2023/02/06 04:51:13;;;;;;;105.47;9.25;;;1.50;99.90;;;;;;5003974;28;20080;-76
2023/02/06 04:53:39;;;;;;;152.52;10.13;;;1.60;99.90;;;;;;5003853;28;20041;-76
2023/02/06 04:56:06;;;;;;;120.95;9.80;;;1.60;99.90;;;;;;5004588;28;20026;-76
2023/02/06 04:58:33;;;;;;;109.68;9.70;;;1.60;99.90;;;;;;5002903;28;20050;-75
2023/02/06 05:00:58;;;;;;;160.02;11.20;;;1.60;99.90;;;;;;5003172;28;20075;-76
2023/02/06 05:03:24;;;;;;;116.05;10.30;;;1.60;99.90;;;;;;5004798;28;20497;-77
2023/02/06 05:05:51;;;;;;;148.30;12.05;;;1.60;99.90;;;;;;5003572;28;20045;-76
2023/02/06 05:08:17;;;;;;;90.07;10.18;;;1.50;99.90;;;;;;5002568;28;20093;-76
2023/02/06 05:10:43;;;;;;;149.02;10.85;;;1.50;99.90;;;;;;5003859;28;20036;-76
2023/02/06 05:13:09;;;;;;;97.75;9.90;;;1.40;99.90;;;;;;5002350;28;20228;-78
2023/02/06 05:15:35;;;;;;;98.28;9.10;;;1.40;99.90;;;;;;5002613;28;20035;-76
2023/02/06 05:18:01;;;;;;;91.32;8.55;;;1.40;99.90;;;;;;5002313;28;20487;-76
2023/02/06 05:20:27;;;;;;;58.90;7.97;;;1.40;99.90;;;;;;5003670;28;20030;-76
2023/02/06 05:22:53;;;;;;;56.25;7.97;;;1.40;99.90;;;;;;5002966;28;20066;-76
2023/02/06 05:25:19;;;;;;;88.95;8.07;;;1.50;99.90;;;;;;5003125;28;20035;-76
2023/02/06 05:27:44;;;;;;;51.22;7.25;;;1.50;99.90;;;;;;5002281;28;20503;-76
2023/02/06 05:30:11;;;;;;;47.80;7.35;;;1.50;99.90;;;;;;5002041;28;20069;-75
2023/02/06 05:32:36;;;;;;;51.67;7.80;;;1.60;99.90;;;;;;5004169;28;20030;-76
2023/02/06 05:35:02;;;;;;;30.58;7.03;;;1.60;99.90;;;;;;5002272;28;20395;-75
2023/02/06 05:37:28;;;;;;;43.17;7.15;;;1.60;99.90;;;;;;5002190;28;20466;-76
2023/02/06 05:39:55;;;;;;;54.97;8.35;;;1.70;99.90;;;;;;5003137;28;20026;-77
2023/02/06 05:42:20;;;;;;;39.55;8.02;;;1.70;99.90;;;;;;5004162;28;20459;-76
2023/02/06 05:44:46;;;;;;;30.42;7.60;;;1.70;99.90;;;;;;5002559;28;20097;-74
2023/02/06 05:47:11;;;;;;;45.72;8.70;;;1.80;99.90;;;;;;5004281;28;20034;-74
2023/02/06 05:49:37;;;;;;;48.40;9.02;;;1.80;99.90;;;;;;5003974;28;20049;-75
2023/02/06 05:52:03;;;;;;;30.17;8.43;;;1.80;99.90;;;;;;5002726;28;20033;-74
2023/02/06 05:54:29;;;;;;;93.28;9.18;;;1.80;99.90;;;;;;5001844;28;20023;-74
2023/02/06 05:56:56;;;;;;;29.42;7.43;;;1.80;99.90;;;;;;5002160;28;20074;-74
2023/02/06 05:59:23;;;;;;;40.40;8.48;;;1.80;99.90;;;;;;4995152;28;20049;-76
2023/02/06 06:01:48;;;;;;;142.50;11.32;;;1.80;99.90;;;;;;5003752;28;20031;-75
2023/02/06 06:04:14;;;;;;;94.78;11.48;;;1.80;99.90;;;;;;5004305;28;20046;-76
2023/02/06 06:06:39;;;;;;;111.30;10.70;;;1.70;99.90;;;;;;5003845;28;20088;-76
2023/02/06 06:09:05;;;;;;;171.70;12.73;;;1.70;99.90;;;;;;5003324;28;20046;-76
2023/02/06 06:11:32;;;;;;;64.97;11.18;;;1.70;99.90;;;;;;5002266;28;20399;-76
2023/02/06 06:13:58;;;;;;;74.45;12.43;;;1.70;99.90;;;;;;5002269;28;20050;-76
2023/02/06 06:16:23;;;;;;;55.58;10.80;;;1.70;99.90;;;;;;5002516;28;20084;-76
2023/02/06 06:18:49;;;;;;;48.63;11.27;;;1.70;99.90;;;;;;5014807;28;20034;-77
2023/02/06 06:21:16;;;;;;;68.60;12.32;;;1.70;99.90;;;;;;5015569;28;20435;-77
2023/02/06 06:23:42;;;;;;;68.97;13.07;;;1.70;99.90;;;;;;5002376;28;20057;-75
2023/02/06 06:26:07;;;;;;;92.65;12.48;;;1.70;99.90;;;;;;5002322;28;20043;-77
2023/02/06 06:28:34;;;;;;;72.18;14.10;;;1.70;99.90;;;;;;5018642;28;20042;-76
2023/02/06 06:31:05;;;;;;;88.40;13.18;;;1.70;99.90;;;;;;5018151;28;20088;-75
2023/02/06 06:33:31;;;;;;;77.72;11.40;;;1.80;99.90;;;;;;5018944;28;20034;-75
2023/02/06 06:35:58;;;;;;;74.25;12.48;;;1.70;99.90;;;;;;5017419;28;20042;-76
2023/02/06 06:38:24;;;;;;;73.40;13.30;;;1.70;99.90;;;;;;4993804;28;20031;-75
2023/02/06 06:40:51;;;;;;;77.80;13.00;;;1.80;99.90;;;;;;5000431;28;20032;-75
2023/02/06 06:43:17;;;;;;;69.85;13.45;;;1.80;99.90;;;;;;5000505;28;20522;-76
2023/02/06 06:45:43;;;;;;;48.55;11.73;;;1.80;99.90;;;;;;5002460;28;20026;-76
2023/02/06 06:48:08;;;;;;;35.20;11.43;;;1.80;99.90;;;;;;4998853;28;20027;-76
2023/02/06 06:50:34;;;;;;;49.03;11.35;;;1.90;99.90;;;;;;5002979;28;20030;-74
2023/02/06 06:53:00;;;;;;;54.03;11.82;;;1.90;99.90;;;;;;4997569;28;20026;-74
2023/02/06 06:55:25;;;;;;;55.75;12.45;;;1.90;99.90;;;;;;4995191;28;20030;-74
2023/02/06 06:57:51;;;;;;;65.75;12.60;;;1.90;99.90;;;;;;4991135;28;20181;-74
2023/02/06 07:00:17;;;;;;;64.13;12.38;;;1.90;99.90;;;;;;4993672;28;20081;-73
2023/02/06 07:02:43;;;;;;;58.42;11.15;;;1.90;99.90;;;;;;4994962;28;20062;-72
2023/02/06 07:05:09;;;;;;;50.47;10.95;;;2.00;99.90;;;;;;4990746;28;20030;-73
2023/02/06 07:07:34;;;;;;;41.97;11.00;;;2.00;99.90;;;;;;4986140;28;20057;-73
2023/02/06 07:10:00;;;;;;;52.72;10.60;;;2.10;99.90;;;;;;4986713;28;20035;-74
2023/02/06 07:12:26;;;;;;;46.78;11.02;;;2.10;99.90;;;;;;5006526;28;20145;-74
2023/02/06 07:14:52;;;;;;;53.72;11.88;;;2.20;99.90;;;;;;5007584;28;20123;-74
2023/02/06 07:17:17;;;;;;;56.45;12.27;;;2.20;99.90;;;;;;5004716;28;20058;-76
2023/02/06 07:19:48;;;;;;;51.58;11.98;;;2.20;99.90;;;;;;5006012;28;20030;-75
2023/02/06 07:22:14;;;;;;;58.13;13.10;;;2.30;99.90;;;;;;5000440;28;20077;-74
2023/02/06 07:24:40;;;;;;;57.28;13.65;;;2.30;99.90;;;;;;4996060;28;20022;-76
2023/02/06 07:27:05;;;;;;;51.70;12.93;;;2.30;99.90;;;;;;4994180;28;20030;-75
2023/02/06 07:29:32;;;;;;;53.15;12.63;;;2.30;99.90;;;;;;5005867;28;20046;-76
2023/02/06 07:31:57;;;;;;;65.35;14.57;;;2.40;99.90;;;;;;5005537;28;20090;-75
2023/02/06 07:34:23;;;;;;;58.13;13.32;;;2.40;99.90;;;;;;5005779;28;20022;-75
2023/02/06 07:36:49;;;;;;;52.22;11.77;;;2.40;99.90;;;;;;5005774;28;20049;-75
2023/02/06 07:39:15;;;;;;;35.35;11.30;;;2.40;99.90;;;;;;5007164;28;20043;-75
2023/02/06 07:41:41;;;;;;;59.33;13.13;;;2.50;99.90;;;;;;5005546;28;20053;-72
2023/02/06 07:44:09;;;;;;;59.92;13.10;;;2.50;99.90;;;;;;5006695;28;20029;-74
2023/02/06 07:46:35;;;;;;;66.95;14.00;;;2.50;99.90;;;;;;5004122;28;20042;-74
2023/02/06 07:49:01;;;;;;;52.92;12.75;;;2.60;99.90;;;;;;5003836;28;20065;-76
2023/02/06 07:51:26;;;;;;;50.38;13.88;;;2.60;99.90;;;;;;5005307;28;20036;-76
2023/02/06 07:53:52;;;;;;;54.67;12.93;;;2.60;99.90;;;;;;5005984;28;20037;-75
2023/02/06 07:56:22;;;;;;;65.28;13.20;;;2.60;99.90;;;;;;5006289;28;20027;-74
2023/02/06 07:58:52;;;;;;;59.40;14.55;;;2.70;99.90;;;;;;5004360;28;20050;-76
2023/02/06 08:01:22;;;;;;;62.13;14.70;;;2.70;99.90;;;;;;5005208;28;20035;-76
2023/02/06 08:03:52;;;;;;;52.60;13.93;;;2.70;99.90;;;;;;5005203;28;20062;-75
2023/02/06 08:06:19;;;;;;;49.80;14.27;;;2.70;99.90;;;;;;5005744;28;20026;-76
2023/02/06 08:08:45;;;;;;;53.13;13.32;;;2.70;99.90;;;;;;5005358;28;20049;-74
2023/02/06 08:11:15;;;;;;;49.50;14.10;;;2.70;99.90;;;;;;5004883;28;20054;-74
2023/02/06 08:13:41;;;;;;;53.53;14.10;;;2.80;99.90;;;;;;5005138;28;20034;-74
2023/02/06 08:16:12;;;;;;;50.67;16.48;;;2.80;99.90;;;;;;5004458;28;20030;-74
2023/02/06 08:18:38;;;;;;;62.28;18.52;;;2.80;99.90;;;;;;5004597;28;20574;-74
2023/02/06 08:21:06;;;;;;;49.17;15.98;;;2.80;99.90;;;;;;5006391;28;20026;-74
2023/02/06 08:23:32;;;;;;;51.45;15.43;;;2.80;99.90;;;;;;5005077;28;20027;-74
2023/02/06 08:26:04;;;;;;;57.05;16.50;;;2.90;99.90;;;;;;5005264;28;20038;-75
2023/02/06 08:28:30;;;;;;;55.70;16.38;;;2.90;99.90;;;;;;5007189;28;20065;-75
2023/02/06 08:30:56;;;;;;;75.28;18.92;;;3.00;99.90;;;;;;5004648;28;20072;-75
2023/02/06 08:33:22;;;;;;;72.63;16.17;;;3.00;99.90;;;;;;5005654;28;20392;-76
2023/02/06 08:35:47;;;;;;;76.97;15.05;;;3.00;99.90;;;;;;5004057;28;20030;-76
2023/02/06 08:38:13;;;;;;;66.82;12.60;;;3.10;99.90;;;;;;5005912;28;20041;-75
2023/02/06 08:40:39;;;;;;;72.57;13.05;;;3.20;99.90;;;;;;5004657;28;20380;-74
2023/02/06 08:43:04;;;;;;;73.80;12.27;;;3.30;99.90;;;;;;4996822;28;20031;-74
2023/02/06 08:45:30;;;;;;;80.47;14.15;;;3.30;99.90;;;;;;5005160;28;20026;-75
2023/02/06 08:47:55;;;;;;;77.60;14.07;;;3.40;99.90;;;;;;5005399;28;20026;-76
2023/02/06 08:50:21;;;;;;;65.90;13.73;;;3.50;99.90;;;;;;5005646;28;20391;-76
2023/02/06 08:52:54;;;;;;;69.47;13.07;;;3.50;99.90;;;;;;5004605;28;20023;-76
2023/02/06 08:55:20;;;;;;;66.73;13.20;;;3.60;99.90;;;;;;5002084;28;20196;-78
2023/02/06 08:57:46;;;;;;;81.13;13.82;;;3.70;99.90;;;;;;4997466;28;20495;-75
2023/02/06 09:00:12;;;;;;;75.60;14.75;;;3.70;99.90;;;;;;4993095;28;20053;-75
2023/02/06 09:02:38;;;;;;;77.88;15.18;;;3.80;99.90;;;;;;5005896;28;20054;-76
2023/02/06 09:05:04;;;;;;;108.05;14.98;;;3.90;99.90;;;;;;4996570;28;20038;-76
2023/02/06 09:07:30;;;;;;;78.30;16.58;;;3.90;99.90;;;;;;5000385;28;20058;-74
2023/02/06 09:09:56;;;;;;;89.68;16.88;;;4.00;99.90;;;;;;4999445;28;20056;-73
2023/02/06 09:12:21;;;;;;;105.63;17.08;;;4.00;99.90;;;;;;4993204;28;20081;-75
2023/02/06 09:14:48;;;;;;;92.00;15.82;;;4.00;99.90;;;;;;4993811;28;20032;-75
2023/02/06 09:17:14;;;;;;;75.03;16.17;;;4.10;99.90;;;;;;4998808;28;20034;-75
2023/02/06 09:19:39;;;;;;;78.65;16.20;;;4.20;99.90;;;;;;5004756;28;20069;-74
2023/02/06 09:22:05;;;;;;;123.80;17.60;;;4.20;99.90;;;;;;4996598;28;20035;-74
2023/02/06 09:24:31;;;;;;;103.97;18.17;;;4.20;99.90;;;;;;5004360;28;20041;-74
2023/02/06 09:26:57;;;;;;;171.75;17.50;;;4.30;99.90;;;;;;5004948;28;20026;-75
2023/02/06 09:29:22;;;;;;;90.38;17.40;;;4.30;99.90;;;;;;5001674;28;20551;-74
2023/02/06 09:31:48;;;;;;;79.85;14.73;;;4.30;99.90;;;;;;4986315;28;20094;-75
2023/02/06 09:34:13;;;;;;;74.93;15.57;;;4.40;99.90;;;;;;5003548;28;20026;-75
2023/02/06 09:36:39;;;;;;;91.72;15.73;;;4.40;99.90;;;;;;5004331;28;20038;-74
2023/02/06 09:39:07;;;;;;;111.97;15.38;;;4.40;99.90;;;;;;4996891;28;20047;-74
2023/02/06 09:42:04;;;;;;;83.93;15.15;;;4.40;99.90;;;;;;4994492;28;20039;-74
2023/02/06 09:44:35;;;;;;;105.47;16.00;;;4.40;99.90;;;;;;4997526;28;20105;-74
2023/02/06 09:47:26;;;;;;;83.32;14.43;;;4.50;99.90;;;;;;5001796;28;20034;-75
2023/02/06 09:49:57;;;;;;;79.95;13.73;;;4.40;99.90;;;;;;5019250;28;20034;-75
2023/02/06 09:52:53;;;;;;;84.78;15.35;;;4.40;99.90;;;;;;5004594;28;20030;-74
2023/02/06 09:55:31;;;;;;;71.57;14.75;;;4.40;99.90;;;;;;5003873;28;20065;-75
2023/02/06 09:58:18;;;;;;;71.18;13.95;;;4.40;99.90;;;;;;5004447;28;20081;-74
2023/02/06 10:01:00;;;;;;;82.78;16.10;;;4.40;99.90;;;;;;5003047;28;20026;-73
2023/02/06 10:03:41;;;;;;;86.57;15.15;;;4.40;99.90;;;;;;5009692;28;20447;-74
2023/02/06 10:06:41;;;;;;;84.38;14.93;;;4.40;99.90;;;;;;5000948;28;20030;-75
2023/02/06 10:09:16;;;;;;;82.20;15.15;;;4.50;99.90;;;;;;4994779;28;20058;-76
2023/02/06 10:12:12;;;;;;;68.20;13.65;;;4.50;99.90;;;;;;5000518;28;20034;-74
2023/02/06 10:14:48;;;;;;;110.85;17.20;;;4.50;99.90;;;;;;4999409;28;20030;-76
2023/02/06 10:17:29;;;;;;;79.13;13.35;;;4.60;99.90;;;;;;4997323;28;20038;-74
2023/02/06 10:20:11;;;;;;;90.90;15.93;;;4.60;99.90;;;;;;5001602;28;20036;-73
2023/02/06 10:22:37;;;;;;;69.93;14.57;;;4.60;99.90;;;;;;5002353;28;20030;-73
2023/02/06 10:25:28;;;;;;;67.82;13.85;;;4.70;99.90;;;;;;5003116;28;20042;-74
2023/02/06 10:27:58;;;;;;;62.47;12.60;;;4.80;99.90;;;;;;4995296;28;20054;-74
2023/02/06 10:30:56;;;;;;;67.88;13.20;;;4.80;99.90;;;;;;4997672;28;20035;-74
2023/02/06 10:33:56;;;;;;;47.05;11.70;;;5.00;99.90;;;;;;5002281;28;20022;-74
2023/02/06 10:36:21;;;;;;;62.10;17.77;;;5.00;99.90;;;;;;5002461;28;20030;-74
2023/02/06 10:39:17;;;;;;;49.38;13.50;;;5.10;99.90;;;;;;5001619;28;20542;-73
2023/02/06 10:41:55;;;;;;;40.58;13.25;;;5.10;99.90;;;;;;5007840;28;20085;-74
2023/02/06 10:44:33;;;;;;;54.13;12.43;;;5.20;99.90;;;;;;5008053;28;20058;-75
2023/02/06 10:46:59;;;;;;;42.53;11.02;;;5.20;99.90;;;;;;5006555;28;20035;-74
2023/02/06 10:49:30;;;;;;;63.60;13.70;;;5.30;99.90;;;;;;5007005;28;20101;-75
2023/02/06 10:52:00;;;;;;;46.58;11.80;;;5.30;99.90;;;;;;5006023;28;20022;-74
2023/02/06 10:54:35;;;;;;;46.65;12.00;;;5.40;99.90;;;;;;5003465;28;20022;-73
2023/02/06 10:57:01;;;;;;;46.75;13.63;;;5.30;99.90;;;;;;5004062;28;20050;-74
2023/02/06 10:59:43;;;;;;;43.03;13.00;;;5.40;99.90;;;;;;5001794;28;20109;-73
2023/02/06 11:02:10;;;;;;;48.15;12.18;;;5.50;99.90;;;;;;5002947;28;20034;-74
2023/02/06 11:05:06;;;;;;;33.45;11.63;;;5.50;99.90;;;;;;4997519;28;20037;-73
2023/02/06 11:07:35;;;;;;;39.60;11.85;;;5.50;99.90;;;;;;4995334;28;20042;-75
2023/02/06 11:10:00;;;;;;;36.15;11.60;;;5.60;99.90;;;;;;4999596;28;20047;-74
2023/02/06 11:12:39;;;;;;;33.72;11.68;;;5.60;99.90;;;;;;4999593;28;20396;-74
2023/02/06 11:15:22;;;;;;;41.00;12.07;;;5.60;99.90;;;;;;4997211;28;20027;-74
2023/02/06 11:17:50;;;;;;;43.28;12.32;;;5.70;99.90;;;;;;4994511;28;20074;-76
2023/02/06 11:20:26;;;;;;;34.25;11.13;;;5.70;99.90;;;;;;5002969;28;20023;-74
2023/02/06 11:22:52;;;;;;;30.42;10.98;;;5.80;99.90;;;;;;5000261;28;20042;-74
2023/02/06 11:25:19;;;;;;;36.97;11.32;;;5.90;99.90;;;;;;4999287;28;20027;-75
2023/02/06 11:27:45;;;;;;;40.78;11.80;;;6.00;99.90;;;;;;4995476;28;20026;-75
2023/02/06 11:30:32;;;;;;;36.10;11.38;;;6.10;99.90;;;;;;5002841;28;20045;-75
2023/02/06 11:33:04;;;;;;;33.97;10.48;;;6.10;99.90;;;;;;5004376;28;20120;-74
2023/02/06 11:35:40;;;;;;;29.55;10.65;;;6.10;99.90;;;;;;5003868;28;20165;-75
2023/02/06 11:38:20;;;;;;;33.13;11.23;;;6.10;99.90;;;;;;5005531;28;20018;-73
2023/02/06 11:41:01;;;;;;;45.08;11.90;;;6.20;99.90;;;;;;5008454;28;20054;-76
2023/02/06 11:43:48;;;;;;;32.08;10.00;;;6.30;99.90;;;;;;5025424;28;20034;-75
2023/02/06 11:46:17;;;;;;;37.35;11.75;;;6.40;99.90;;;;;;5025267;28;20028;-75
2023/02/06 11:48:45;;;;;;;41.17;12.30;;;6.40;99.90;;;;;;5025145;28;20045;-73
2023/02/06 11:51:12;;;;;;;36.00;11.77;;;6.40;99.90;;;;;;5024380;28;20026;-74
2023/02/06 11:53:52;;;;;;;35.38;13.07;;;6.40;99.90;;;;;;5024638;28;20037;-74
2023/02/06 11:56:19;;;;;;;31.58;11.38;;;6.40;99.90;;;;;;5006200;28;20104;-74
2023/02/06 11:58:45;;;;;;;36.28;11.30;;;6.40;99.90;;;;;;5006544;28;20053;-74
2023/02/06 12:01:20;;;;;;;31.95;10.10;;;6.40;99.90;;;;;;5006470;28;20499;-75
2023/02/06 12:03:49;;;;;;;34.75;10.77;;;6.40;99.90;;;;;;5002270;28;20031;-75
2023/02/06 12:06:33;;;;;;;36.47;11.32;;;6.50;99.90;;;;;;4992429;28;20042;-74
2023/02/06 12:09:00;;;;;;;;;;;6.40;99.90;;;;;;4993395;28;20077;-74
2023/02/06 12:11:36;;;;;;;28.25;9.75;;;6.40;99.90;;;;;;5001345;28;20434;-74
2023/02/06 12:14:20;;;;;;;41.08;10.57;;;6.40;99.90;;;;;;4998146;28;20038;-73
2023/02/06 12:16:46;;;;;;;26.08;9.27;;;6.50;99.90;;;;;;4988341;28;20053;-74
2023/02/06 12:19:30;;;;;;;30.08;9.50;;;6.50;99.90;;;;;;4997892;28;20085;-74
2023/02/06 12:22:17;;;;;;;24.60;9.07;;;6.50;99.90;;;;;;4984441;28;20026;-75
2023/02/06 12:24:50;;;;;;;22.00;7.78;;;6.70;99.90;;;;;;4997985;28;20061;-74
2023/02/06 12:27:21;;;;;;;32.70;9.02;;;6.90;99.90;;;;;;4999917;28;20023;-76
2023/02/06 12:30:05;;;;;;;25.63;8.50;;;7.70;99.90;;;;;;4995120;28;20038;-73
2023/02/06 12:32:40;;;;;;;26.25;8.65;;;8.60;99.90;;;;;;4997700;28;20032;-73
2023/02/06 12:35:13;;;;;;;26.85;7.93;;;9.40;99.90;;;;;;4998903;28;20031;-73
2023/02/06 12:37:47;;;;;;;19.70;7.05;;;10.20;99.90;;;;;;4995889;28;20030;-73
2023/02/06 12:40:22;;;;;;;;;;;11.00;99.90;;;;;;5003477;28;20719;-74
2023/02/06 12:42:58;;;;;;;21.20;6.75;;;11.30;99.90;;;;;;5005361;28;19906;-74
2023/02/06 12:45:43;;;;;;;26.05;6.53;;;11.60;99.90;;;;;;5001997;28;20054;-74
2023/02/06 12:48:34;;;;;;;22.70;7.50;;;11.70;99.90;;;;;;4999306;28;20042;-75
2023/02/06 12:51:18;;;;;;;20.80;6.53;;;12.00;99.90;;;;;;4993385;28;20035;-74
2023/02/06 12:53:50;;;;;;;17.83;6.95;;;12.20;99.90;;;;;;5002542;28;20391;-74
2023/02/06 12:56:30;;;;;;;19.02;5.30;;;12.60;99.90;;;;;;5003945;28;20060;-74